sensor_id;sensor_type;location;lat;lon;timestamp;P1;durP1;ratioP1;P2;durP2;ratioP2
33714;SDS011;20043;50.998;4.754;2024-02-21T00:00:13;34.92;;;9.93;;
33714;SDS011;20043;50.998;4.754;2024-02-21T00:02:39;33.22;;;9.20;;
33714;SDS011;20043;50.998;4.754;2024-02-21T00:05:05;32.80;;;9.00;;
33714;SDS011;20043;50.998;4.754;2024-02-21T00:07:31;26.08;;;9.88;;
33714;SDS011;20043;50.998;4.754;2024-02-21T00:09:56;30.15;;;9.35;;
33714;SDS011;20043;50.998;4.754;2024-02-21T00:12:22;29.75;;;10.02;;
33714;SDS011;20043;50.998;4.754;2024-02-21T00:14:47;27.88;;;9.05;;
33714;SDS011;20043;50.998;4.754;2024-02-21T00:17:13;28.52;;;8.98;;
33714;SDS011;20043;50.998;4.754;2024-02-21T00:19:39;28.52;;;9.77;;
33714;SDS011;20043;50.998;4.754;2024-02-21T00:22:04;26.83;;;10.43;;
33714;SDS011;20043;50.998;4.754;2024-02-21T00:24:30;26.58;;;9.55;;
33714;SDS011;20043;50.998;4.754;2024-02-21T00:26:55;24.27;;;9.32;;
33714;SDS011;20043;50.998;4.754;2024-02-21T00:29:21;32.00;;;9.98;;
33714;SDS011;20043;50.998;4.754;2024-02-21T00:31:47;31.58;;;9.38;;
33714;SDS011;20043;50.998;4.754;2024-02-21T00:34:14;34.85;;;10.82;;
33714;SDS011;20043;50.998;4.754;2024-02-21T00:36:39;35.72;;;10.73;;
33714;SDS011;20043;50.998;4.754;2024-02-21T00:39:05;24.95;;;9.48;;
33714;SDS011;20043;50.998;4.754;2024-02-21T00:41:31;26.13;;;9.68;;
33714;SDS011;20043;50.998;4.754;2024-02-21T00:43:57;33.47;;;10.07;;
33714;SDS011;20043;50.998;4.754;2024-02-21T00:46:22;33.03;;;10.10;;
33714;SDS011;20043;50.998;4.754;2024-02-21T00:48:48;37.08;;;11.55;;
33714;SDS011;20043;50.998;4.754;2024-02-21T00:51:14;29.10;;;10.75;;
33714;SDS011;20043;50.998;4.754;2024-02-21T00:53:40;32.83;;;9.60;;
33714;SDS011;20043;50.998;4.754;2024-02-21T00:56:06;23.13;;;9.07;;
33714;SDS011;20043;50.998;4.754;2024-02-21T00:58:32;27.13;;;9.15;;
33714;SDS011;20043;50.998;4.754;2024-02-21T01:00:58;23.88;;;8.50;;
33714;SDS011;20043;50.998;4.754;2024-02-21T01:03:29;27.95;;;8.82;;
33714;SDS011;20043;50.998;4.754;2024-02-21T01:05:55;22.10;;;8.23;;
33714;SDS011;20043;50.998;4.754;2024-02-21T01:08:20;26.98;;;8.57;;
33714;SDS011;20043;50.998;4.754;2024-02-21T01:10:46;27.45;;;8.50;;
33714;SDS011;20043;50.998;4.754;2024-02-21T01:13:12;20.63;;;8.25;;
33714;SDS011;20043;50.998;4.754;2024-02-21T01:15:37;24.98;;;8.63;;
33714;SDS011;20043;50.998;4.754;2024-02-21T01:18:03;20.02;;;7.22;;
33714;SDS011;20043;50.998;4.754;2024-02-21T01:20:30;25.95;;;8.10;;
33714;SDS011;20043;50.998;4.754;2024-02-21T01:22:55;23.15;;;7.47;;
33714;SDS011;20043;50.998;4.754;2024-02-21T01:25:21;23.30;;;7.38;;
33714;SDS011;20043;50.998;4.754;2024-02-21T01:27:46;26.02;;;7.40;;
33714;SDS011;20043;50.998;4.754;2024-02-21T01:30:12;15.15;;;6.38;;
33714;SDS011;20043;50.998;4.754;2024-02-21T01:32:38;17.08;;;7.13;;
33714;SDS011;20043;50.998;4.754;2024-02-21T01:35:03;15.70;;;5.55;;
33714;SDS011;20043;50.998;4.754;2024-02-21T01:37:29;15.65;;;5.80;;
33714;SDS011;20043;50.998;4.754;2024-02-21T01:39:55;15.75;;;5.70;;
33714;SDS011;20043;50.998;4.754;2024-02-21T01:42:20;18.35;;;6.60;;
33714;SDS011;20043;50.998;4.754;2024-02-21T01:44:46;23.38;;;9.05;;
33714;SDS011;20043;50.998;4.754;2024-02-21T01:47:11;30.00;;;10.10;;
33714;SDS011;20043;50.998;4.754;2024-02-21T01:49:40;23.55;;;10.30;;
33714;SDS011;20043;50.998;4.754;2024-02-21T01:52:06;28.33;;;11.23;;
33714;SDS011;20043;50.998;4.754;2024-02-21T01:54:33;35.80;;;12.82;;
33714;SDS011;20043;50.998;4.754;2024-02-21T01:56:59;33.85;;;11.30;;
33714;SDS011;20043;50.998;4.754;2024-02-21T01:59:26;32.45;;;12.82;;
33714;SDS011;20043;50.998;4.754;2024-02-21T02:01:51;28.52;;;11.98;;
33714;SDS011;20043;50.998;4.754;2024-02-21T02:04:18;28.65;;;11.73;;
33714;SDS011;20043;50.998;4.754;2024-02-21T02:06:45;29.60;;;11.68;;
33714;SDS011;20043;50.998;4.754;2024-02-21T02:09:11;32.83;;;11.95;;
33714;SDS011;20043;50.998;4.754;2024-02-21T02:11:36;30.25;;;12.05;;
33714;SDS011;20043;50.998;4.754;2024-02-21T02:14:02;37.42;;;12.43;;
33714;SDS011;20043;50.998;4.754;2024-02-21T02:16:28;33.08;;;11.73;;
33714;SDS011;20043;50.998;4.754;2024-02-21T02:18:53;25.50;;;11.68;;
33714;SDS011;20043;50.998;4.754;2024-02-21T02:21:38;32.85;;;11.73;;
33714;SDS011;20043;50.998;4.754;2024-02-21T02:24:07;34.55;;;12.18;;
33714;SDS011;20043;50.998;4.754;2024-02-21T02:26:33;26.23;;;12.07;;
33714;SDS011;20043;50.998;4.754;2024-02-21T02:28:58;34.75;;;11.57;;
33714;SDS011;20043;50.998;4.754;2024-02-21T02:31:27;38.83;;;12.57;;
33714;SDS011;20043;50.998;4.754;2024-02-21T02:33:52;32.42;;;13.05;;
33714;SDS011;20043;50.998;4.754;2024-02-21T02:36:18;30.23;;;12.15;;
33714;SDS011;20043;50.998;4.754;2024-02-21T02:38:44;34.25;;;11.80;;
33714;SDS011;20043;50.998;4.754;2024-02-21T02:41:10;29.27;;;11.57;;
33714;SDS011;20043;50.998;4.754;2024-02-21T02:43:35;35.03;;;12.15;;
33714;SDS011;20043;50.998;4.754;2024-02-21T02:46:02;30.05;;;12.00;;
33714;SDS011;20043;50.998;4.754;2024-02-21T02:48:28;36.85;;;12.25;;
33714;SDS011;20043;50.998;4.754;2024-02-21T02:50:54;36.40;;;11.95;;
33714;SDS011;20043;50.998;4.754;2024-02-21T02:53:20;33.53;;;12.00;;
33714;SDS011;20043;50.998;4.754;2024-02-21T02:55:45;32.50;;;12.02;;
33714;SDS011;20043;50.998;4.754;2024-02-21T02:58:11;33.92;;;12.88;;
33714;SDS011;20043;50.998;4.754;2024-02-21T03:00:37;26.63;;;12.23;;
33714;SDS011;20043;50.998;4.754;2024-02-21T03:03:04;42.28;;;12.85;;
33714;SDS011;20043;50.998;4.754;2024-02-21T03:05:30;33.40;;;12.57;;
33714;SDS011;20043;50.998;4.754;2024-02-21T03:07:55;32.63;;;11.82;;
33714;SDS011;20043;50.998;4.754;2024-02-21T03:10:21;33.72;;;12.75;;
33714;SDS011;20043;50.998;4.754;2024-02-21T03:12:47;28.20;;;10.98;;
33714;SDS011;20043;50.998;4.754;2024-02-21T03:15:13;32.95;;;11.13;;
33714;SDS011;20043;50.998;4.754;2024-02-21T03:17:39;32.10;;;10.88;;
33714;SDS011;20043;50.998;4.754;2024-02-21T03:20:05;26.77;;;10.50;;
33714;SDS011;20043;50.998;4.754;2024-02-21T03:22:34;27.40;;;11.07;;
33714;SDS011;20043;50.998;4.754;2024-02-21T03:25:00;29.17;;;10.77;;
33714;SDS011;20043;50.998;4.754;2024-02-21T03:27:26;27.63;;;10.13;;
33714;SDS011;20043;50.998;4.754;2024-02-21T03:29:52;24.48;;;10.32;;
33714;SDS011;20043;50.998;4.754;2024-02-21T03:32:17;32.00;;;10.70;;
33714;SDS011;20043;50.998;4.754;2024-02-21T03:34:43;30.73;;;10.70;;
33714;SDS011;20043;50.998;4.754;2024-02-21T03:37:09;29.60;;;9.90;;
33714;SDS011;20043;50.998;4.754;2024-02-21T03:39:34;32.45;;;10.38;;
33714;SDS011;20043;50.998;4.754;2024-02-21T03:42:00;25.70;;;10.10;;
33714;SDS011;20043;50.998;4.754;2024-02-21T03:44:29;30.02;;;10.05;;
33714;SDS011;20043;50.998;4.754;2024-02-21T03:46:58;29.38;;;10.57;;
33714;SDS011;20043;50.998;4.754;2024-02-21T03:49:25;35.63;;;10.85;;
33714;SDS011;20043;50.998;4.754;2024-02-21T03:51:51;27.13;;;10.13;;
33714;SDS011;20043;50.998;4.754;2024-02-21T03:54:16;23.98;;;10.35;;
33714;SDS011;20043;50.998;4.754;2024-02-21T03:56:42;28.85;;;10.48;;
33714;SDS011;20043;50.998;4.754;2024-02-21T03:59:07;24.42;;;10.43;;
33714;SDS011;20043;50.998;4.754;2024-02-21T04:01:36;25.77;;;10.93;;
33714;SDS011;20043;50.998;4.754;2024-02-21T04:06:34;31.08;;;10.40;;
33714;SDS011;20043;50.998;4.754;2024-02-21T04:09:00;21.40;;;10.10;;
33714;SDS011;20043;50.998;4.754;2024-02-21T04:11:26;27.35;;;11.13;;
33714;SDS011;20043;50.998;4.754;2024-02-21T04:13:57;35.83;;;11.13;;
33714;SDS011;20043;50.998;4.754;2024-02-21T04:16:23;34.00;;;10.98;;
33714;SDS011;20043;50.998;4.754;2024-02-21T04:18:49;27.70;;;11.43;;
33714;SDS011;20043;50.998;4.754;2024-02-21T04:21:14;27.27;;;10.80;;
33714;SDS011;20043;50.998;4.754;2024-02-21T04:23:41;29.23;;;11.73;;
33714;SDS011;20043;50.998;4.754;2024-02-21T04:26:07;28.33;;;11.32;;
33714;SDS011;20043;50.998;4.754;2024-02-21T04:28:33;27.02;;;11.40;;
33714;SDS011;20043;50.998;4.754;2024-02-21T04:30:58;32.10;;;11.40;;
33714;SDS011;20043;50.998;4.754;2024-02-21T04:33:24;30.00;;;10.60;;
33714;SDS011;20043;50.998;4.754;2024-02-21T04:35:49;20.73;;;10.43;;
33714;SDS011;20043;50.998;4.754;2024-02-21T04:38:15;30.23;;;11.05;;
33714;SDS011;20043;50.998;4.754;2024-02-21T04:40:40;22.00;;;10.52;;
33714;SDS011;20043;50.998;4.754;2024-02-21T04:43:06;26.90;;;11.52;;
33714;SDS011;20043;50.998;4.754;2024-02-21T04:45:32;29.30;;;11.13;;
33714;SDS011;20043;50.998;4.754;2024-02-21T04:47:57;29.45;;;11.70;;
33714;SDS011;20043;50.998;4.754;2024-02-21T04:50:23;26.52;;;11.30;;
33714;SDS011;20043;50.998;4.754;2024-02-21T04:52:48;27.42;;;12.18;;
33714;SDS011;20043;50.998;4.754;2024-02-21T04:55:14;29.13;;;11.13;;
33714;SDS011;20043;50.998;4.754;2024-02-21T04:57:39;26.83;;;10.80;;
33714;SDS011;20043;50.998;4.754;2024-02-21T05:00:05;27.83;;;11.85;;
33714;SDS011;20043;50.998;4.754;2024-02-21T05:02:31;27.05;;;11.57;;
33714;SDS011;20043;50.998;4.754;2024-02-21T05:04:57;29.20;;;11.63;;
33714;SDS011;20043;50.998;4.754;2024-02-21T05:07:23;24.30;;;10.93;;
33714;SDS011;20043;50.998;4.754;2024-02-21T05:09:48;35.65;;;12.32;;
33714;SDS011;20043;50.998;4.754;2024-02-21T05:12:14;29.55;;;11.07;;
33714;SDS011;20043;50.998;4.754;2024-02-21T05:14:39;34.20;;;13.15;;
33714;SDS011;20043;50.998;4.754;2024-02-21T05:17:05;30.67;;;11.40;;
33714;SDS011;20043;50.998;4.754;2024-02-21T05:19:31;27.30;;;11.75;;
33714;SDS011;20043;50.998;4.754;2024-02-21T05:21:56;21.27;;;10.05;;
33714;SDS011;20043;50.998;4.754;2024-02-21T05:24:22;35.05;;;11.50;;
33714;SDS011;20043;50.998;4.754;2024-02-21T05:26:47;23.77;;;11.63;;
33714;SDS011;20043;50.998;4.754;2024-02-21T05:29:13;22.65;;;11.38;;
33714;SDS011;20043;50.998;4.754;2024-02-21T05:34:17;25.00;;;10.60;;
33714;SDS011;20043;50.998;4.754;2024-02-21T05:36:42;27.63;;;10.93;;
33714;SDS011;20043;50.998;4.754;2024-02-21T05:39:09;28.25;;;11.50;;
33714;SDS011;20043;50.998;4.754;2024-02-21T05:41:34;23.95;;;10.75;;
33714;SDS011;20043;50.998;4.754;2024-02-21T05:44:00;22.25;;;10.40;;
33714;SDS011;20043;50.998;4.754;2024-02-21T05:46:26;22.00;;;10.40;;
33714;SDS011;20043;50.998;4.754;2024-02-21T05:48:52;21.73;;;9.88;;
33714;SDS011;20043;50.998;4.754;2024-02-21T05:51:17;24.83;;;11.05;;
33714;SDS011;20043;50.998;4.754;2024-02-21T05:53:43;22.52;;;9.95;;
33714;SDS011;20043;50.998;4.754;2024-02-21T05:56:12;25.15;;;9.75;;
33714;SDS011;20043;50.998;4.754;2024-02-21T05:58:38;25.63;;;10.13;;
33714;SDS011;20043;50.998;4.754;2024-02-21T06:01:04;17.60;;;8.93;;
33714;SDS011;20043;50.998;4.754;2024-02-21T06:03:31;25.45;;;9.80;;
33714;SDS011;20043;50.998;4.754;2024-02-21T06:05:57;22.33;;;9.13;;
33714;SDS011;20043;50.998;4.754;2024-02-21T06:08:24;20.05;;;9.38;;
33714;SDS011;20043;50.998;4.754;2024-02-21T06:10:49;18.70;;;8.82;;
33714;SDS011;20043;50.998;4.754;2024-02-21T06:13:19;23.80;;;8.50;;
33714;SDS011;20043;50.998;4.754;2024-02-21T06:15:53;18.80;;;8.57;;
33714;SDS011;20043;50.998;4.754;2024-02-21T06:18:19;24.17;;;8.23;;
33714;SDS011;20043;50.998;4.754;2024-02-21T06:20:45;23.00;;;8.38;;
33714;SDS011;20043;50.998;4.754;2024-02-21T06:23:12;20.38;;;8.20;;
33714;SDS011;20043;50.998;4.754;2024-02-21T06:25:38;16.95;;;8.10;;
33714;SDS011;20043;50.998;4.754;2024-02-21T06:28:05;17.30;;;7.60;;
33714;SDS011;20043;50.998;4.754;2024-02-21T06:30:30;13.32;;;7.03;;
33714;SDS011;20043;50.998;4.754;2024-02-21T06:32:56;19.73;;;7.30;;
33714;SDS011;20043;50.998;4.754;2024-02-21T06:35:22;14.00;;;6.93;;
33714;SDS011;20043;50.998;4.754;2024-02-21T06:37:51;15.07;;;6.93;;
33714;SDS011;20043;50.998;4.754;2024-02-21T06:40:17;20.20;;;6.85;;
33714;SDS011;20043;50.998;4.754;2024-02-21T06:42:43;13.13;;;6.90;;
33714;SDS011;20043;50.998;4.754;2024-02-21T06:45:08;13.95;;;7.40;;
33714;SDS011;20043;50.998;4.754;2024-02-21T06:47:34;16.25;;;6.88;;
33714;SDS011;20043;50.998;4.754;2024-02-21T06:50:00;17.55;;;6.50;;
33714;SDS011;20043;50.998;4.754;2024-02-21T06:52:26;15.23;;;6.40;;
33714;SDS011;20043;50.998;4.754;2024-02-21T06:54:51;17.88;;;6.22;;
33714;SDS011;20043;50.998;4.754;2024-02-21T06:57:17;12.45;;;5.97;;
33714;SDS011;20043;50.998;4.754;2024-02-21T06:59:43;14.77;;;5.90;;
33714;SDS011;20043;50.998;4.754;2024-02-21T07:02:08;15.90;;;6.13;;
33714;SDS011;20043;50.998;4.754;2024-02-21T07:04:34;13.73;;;5.78;;
33714;SDS011;20043;50.998;4.754;2024-02-21T07:06:59;9.57;;;5.57;;
33714;SDS011;20043;50.998;4.754;2024-02-21T07:09:25;16.90;;;5.88;;
33714;SDS011;20043;50.998;4.754;2024-02-21T07:11:51;14.38;;;6.30;;
33714;SDS011;20043;50.998;4.754;2024-02-21T07:14:18;14.95;;;5.80;;
33714;SDS011;20043;50.998;4.754;2024-02-21T07:16:43;11.38;;;5.93;;
33714;SDS011;20043;50.998;4.754;2024-02-21T07:19:09;17.05;;;6.15;;
33714;SDS011;20043;50.998;4.754;2024-02-21T07:21:34;13.13;;;5.97;;
33714;SDS011;20043;50.998;4.754;2024-02-21T07:24:03;12.10;;;6.00;;
33714;SDS011;20043;50.998;4.754;2024-02-21T07:26:30;13.48;;;6.20;;
33714;SDS011;20043;50.998;4.754;2024-02-21T07:28:56;13.52;;;6.75;;
33714;SDS011;20043;50.998;4.754;2024-02-21T07:31:22;12.75;;;6.65;;
33714;SDS011;20043;50.998;4.754;2024-02-21T07:33:47;19.88;;;7.55;;
33714;SDS011;20043;50.998;4.754;2024-02-21T07:36:14;15.43;;;7.68;;
33714;SDS011;20043;50.998;4.754;2024-02-21T07:38:41;22.80;;;9.20;;
33714;SDS011;20043;50.998;4.754;2024-02-21T07:41:07;14.13;;;8.25;;
33714;SDS011;20043;50.998;4.754;2024-02-21T07:43:32;16.85;;;8.95;;
33714;SDS011;20043;50.998;4.754;2024-02-21T07:45:58;21.92;;;9.63;;
33714;SDS011;20043;50.998;4.754;2024-02-21T07:48:24;15.60;;;9.48;;
33714;SDS011;20043;50.998;4.754;2024-02-21T07:50:50;19.10;;;10.05;;
33714;SDS011;20043;50.998;4.754;2024-02-21T07:53:16;19.52;;;9.98;;
33714;SDS011;20043;50.998;4.754;2024-02-21T07:55:41;17.05;;;9.75;;
33714;SDS011;20043;50.998;4.754;2024-02-21T07:58:07;19.15;;;10.57;;
33714;SDS011;20043;50.998;4.754;2024-02-21T08:00:33;18.52;;;10.80;;
33714;SDS011;20043;50.998;4.754;2024-02-21T08:02:58;22.85;;;11.30;;
33714;SDS011;20043;50.998;4.754;2024-02-21T08:05:24;16.73;;;10.25;;
33714;SDS011;20043;50.998;4.754;2024-02-21T08:07:49;22.13;;;11.35;;
33714;SDS011;20043;50.998;4.754;2024-02-21T08:10:15;18.23;;;10.40;;
33714;SDS011;20043;50.998;4.754;2024-02-21T08:12:41;29.60;;;11.00;;
33714;SDS011;20043;50.998;4.754;2024-02-21T08:15:06;22.33;;;10.30;;
33714;SDS011;20043;50.998;4.754;2024-02-21T08:17:35;21.77;;;10.40;;
33714;SDS011;20043;50.998;4.754;2024-02-21T08:20:01;22.77;;;9.70;;
33714;SDS011;20043;50.998;4.754;2024-02-21T08:22:27;18.50;;;9.85;;
33714;SDS011;20043;50.998;4.754;2024-02-21T08:24:53;18.48;;;9.55;;
33714;SDS011;20043;50.998;4.754;2024-02-21T08:27:19;22.55;;;9.63;;
33714;SDS011;20043;50.998;4.754;2024-02-21T08:29:44;17.67;;;9.65;;
33714;SDS011;20043;50.998;4.754;2024-02-21T08:32:10;20.55;;;9.10;;
33714;SDS011;20043;50.998;4.754;2024-02-21T08:34:35;16.10;;;9.60;;
33714;SDS011;20043;50.998;4.754;2024-02-21T08:37:01;17.42;;;9.20;;
33714;SDS011;20043;50.998;4.754;2024-02-21T08:39:27;15.88;;;8.43;;
33714;SDS011;20043;50.998;4.754;2024-02-21T08:41:54;21.90;;;10.07;;
33714;SDS011;20043;50.998;4.754;2024-02-21T08:44:22;14.82;;;9.60;;
33714;SDS011;20043;50.998;4.754;2024-02-21T08:46:52;16.35;;;9.68;;
33714;SDS011;20043;50.998;4.754;2024-02-21T08:49:18;21.42;;;9.23;;
33714;SDS011;20043;50.998;4.754;2024-02-21T08:51:43;21.95;;;9.23;;
33714;SDS011;20043;50.998;4.754;2024-02-21T08:54:09;15.70;;;8.45;;
33714;SDS011;20043;50.998;4.754;2024-02-21T08:56:35;18.27;;;8.70;;
33714;SDS011;20043;50.998;4.754;2024-02-21T08:59:01;18.10;;;8.20;;
33714;SDS011;20043;50.998;4.754;2024-02-21T09:01:26;22.48;;;8.70;;
33714;SDS011;20043;50.998;4.754;2024-02-21T09:03:52;16.55;;;7.97;;
33714;SDS011;20043;50.998;4.754;2024-02-21T09:06:19;20.00;;;7.38;;
33714;SDS011;20043;50.998;4.754;2024-02-21T09:08:45;15.93;;;7.40;;
33714;SDS011;20043;50.998;4.754;2024-02-21T09:11:11;17.42;;;7.95;;
33714;SDS011;20043;50.998;4.754;2024-02-21T09:13:36;17.83;;;6.90;;
33714;SDS011;20043;50.998;4.754;2024-02-21T09:16:02;12.77;;;7.25;;
33714;SDS011;20043;50.998;4.754;2024-02-21T09:18:28;16.10;;;7.18;;
33714;SDS011;20043;50.998;4.754;2024-02-21T09:20:54;15.45;;;6.30;;
33714;SDS011;20043;50.998;4.754;2024-02-21T09:23:20;18.80;;;6.78;;
33714;SDS011;20043;50.998;4.754;2024-02-21T09:25:48;13.48;;;5.97;;
33714;SDS011;20043;50.998;4.754;2024-02-21T09:28:14;16.38;;;5.85;;
33714;SDS011;20043;50.998;4.754;2024-02-21T09:30:47;13.80;;;5.90;;
33714;SDS011;20043;50.998;4.754;2024-02-21T09:33:13;11.80;;;5.68;;
33714;SDS011;20043;50.998;4.754;2024-02-21T09:35:38;12.27;;;5.40;;
33714;SDS011;20043;50.998;4.754;2024-02-21T09:38:04;12.65;;;5.75;;
33714;SDS011;20043;50.998;4.754;2024-02-21T09:40:30;12.90;;;4.65;;
33714;SDS011;20043;50.998;4.754;2024-02-21T09:43:03;11.93;;;5.47;;
33714;SDS011;20043;50.998;4.754;2024-02-21T09:45:29;14.02;;;4.80;;
33714;SDS011;20043;50.998;4.754;2024-02-21T09:50:56;26.25;;;6.50;;
33714;SDS011;20043;50.998;4.754;2024-02-21T09:53:24;16.40;;;5.30;;
33714;SDS011;20043;50.998;4.754;2024-02-21T09:55:50;14.68;;;4.93;;
33714;SDS011;20043;50.998;4.754;2024-02-21T09:58:17;11.50;;;4.70;;
33714;SDS011;20043;50.998;4.754;2024-02-21T10:00:43;12.65;;;5.18;;
33714;SDS011;20043;50.998;4.754;2024-02-21T10:03:09;11.88;;;4.47;;
33714;SDS011;20043;50.998;4.754;2024-02-21T10:05:35;13.63;;;5.20;;
33714;SDS011;20043;50.998;4.754;2024-02-21T10:08:01;15.27;;;5.20;;
33714;SDS011;20043;50.998;4.754;2024-02-21T10:10:28;9.88;;;4.57;;
33714;SDS011;20043;50.998;4.754;2024-02-21T10:12:54;11.75;;;4.13;;
33714;SDS011;20043;50.998;4.754;2024-02-21T10:15:20;9.88;;;4.75;;
33714;SDS011;20043;50.998;4.754;2024-02-21T10:18:02;14.50;;;4.60;;
33714;SDS011;20043;50.998;4.754;2024-02-21T10:20:31;11.18;;;3.92;;
33714;SDS011;20043;50.998;4.754;2024-02-21T10:23:04;13.38;;;4.20;;
33714;SDS011;20043;50.998;4.754;2024-02-21T10:25:34;14.43;;;4.57;;
33714;SDS011;20043;50.998;4.754;2024-02-21T10:28:00;13.68;;;4.10;;
33714;SDS011;20043;50.998;4.754;2024-02-21T10:30:27;12.07;;;4.53;;
33714;SDS011;20043;50.998;4.754;2024-02-21T10:32:53;14.15;;;4.45;;
33714;SDS011;20043;50.998;4.754;2024-02-21T10:35:26;10.02;;;3.75;;
33714;SDS011;20043;50.998;4.754;2024-02-21T10:37:56;12.60;;;4.32;;
33714;SDS011;20043;50.998;4.754;2024-02-21T10:40:23;14.95;;;4.28;;
33714;SDS011;20043;50.998;4.754;2024-02-21T10:42:50;14.45;;;3.92;;
33714;SDS011;20043;50.998;4.754;2024-02-21T10:45:35;12.13;;;4.40;;
33714;SDS011;20043;50.998;4.754;2024-02-21T10:48:11;12.07;;;4.10;;
33714;SDS011;20043;50.998;4.754;2024-02-21T10:50:45;12.15;;;4.25;;
33714;SDS011;20043;50.998;4.754;2024-02-21T10:55:54;12.55;;;3.67;;
33714;SDS011;20043;50.998;4.754;2024-02-21T10:58:24;10.50;;;4.68;;
33714;SDS011;20043;50.998;4.754;2024-02-21T11:00:50;13.88;;;3.85;;
33714;SDS011;20043;50.998;4.754;2024-02-21T11:03:17;16.25;;;4.68;;
33714;SDS011;20043;50.998;4.754;2024-02-21T11:05:43;17.45;;;4.40;;
33714;SDS011;20043;50.998;4.754;2024-02-21T11:08:10;13.88;;;4.45;;
33714;SDS011;20043;50.998;4.754;2024-02-21T11:10:36;15.25;;;4.00;;
33714;SDS011;20043;50.998;4.754;2024-02-21T11:13:08;15.52;;;4.88;;
33714;SDS011;20043;50.998;4.754;2024-02-21T11:15:34;14.02;;;4.28;;
33714;SDS011;20043;50.998;4.754;2024-02-21T11:17:59;13.25;;;4.32;;
33714;SDS011;20043;50.998;4.754;2024-02-21T11:20:35;12.95;;;4.53;;
33714;SDS011;20043;50.998;4.754;2024-02-21T11:23:01;14.48;;;3.70;;
33714;SDS011;20043;50.998;4.754;2024-02-21T11:25:28;12.55;;;3.95;;
33714;SDS011;20043;50.998;4.754;2024-02-21T11:28:02;12.00;;;4.03;;
33714;SDS011;20043;50.998;4.754;2024-02-21T11:30:32;17.67;;;4.05;;
33714;SDS011;20043;50.998;4.754;2024-02-21T11:33:03;13.02;;;4.13;;
33714;SDS011;20043;50.998;4.754;2024-02-21T11:35:31;13.52;;;3.72;;
33714;SDS011;20043;50.998;4.754;2024-02-21T11:38:08;11.23;;;4.00;;
33714;SDS011;20043;50.998;4.754;2024-02-21T11:40:44;18.83;;;3.67;;
33714;SDS011;20043;50.998;4.754;2024-02-21T11:43:11;15.48;;;3.97;;
33714;SDS011;20043;50.998;4.754;2024-02-21T11:45:36;10.88;;;3.38;;
33714;SDS011;20043;50.998;4.754;2024-02-21T11:48:05;13.32;;;3.45;;
33714;SDS011;20043;50.998;4.754;2024-02-21T11:50:31;12.52;;;3.17;;
33714;SDS011;20043;50.998;4.754;2024-02-21T11:52:59;11.02;;;3.70;;
33714;SDS011;20043;50.998;4.754;2024-02-21T11:55:25;11.50;;;2.97;;
33714;SDS011;20043;50.998;4.754;2024-02-21T11:57:50;12.68;;;3.80;;
33714;SDS011;20043;50.998;4.754;2024-02-21T12:00:16;12.77;;;3.08;;
33714;SDS011;20043;50.998;4.754;2024-02-21T12:02:46;9.43;;;3.15;;
33714;SDS011;20043;50.998;4.754;2024-02-21T12:05:12;9.43;;;3.38;;
33714;SDS011;20043;50.998;4.754;2024-02-21T12:07:39;11.13;;;3.08;;
33714;SDS011;20043;50.998;4.754;2024-02-21T12:10:08;12.88;;;3.17;;
33714;SDS011;20043;50.998;4.754;2024-02-21T12:12:35;8.60;;;2.88;;
33714;SDS011;20043;50.998;4.754;2024-02-21T12:15:03;8.18;;;3.08;;
33714;SDS011;20043;50.998;4.754;2024-02-21T12:17:32;11.73;;;3.28;;
33714;SDS011;20043;50.998;4.754;2024-02-21T12:19:59;11.98;;;3.45;;
33714;SDS011;20043;50.998;4.754;2024-02-21T12:22:25;8.55;;;2.20;;
33714;SDS011;20043;50.998;4.754;2024-02-21T12:24:52;10.80;;;2.40;;
33714;SDS011;20043;50.998;4.754;2024-02-21T12:27:17;7.78;;;2.90;;
33714;SDS011;20043;50.998;4.754;2024-02-21T12:29:43;8.10;;;3.00;;
33714;SDS011;20043;50.998;4.754;2024-02-21T12:32:09;7.38;;;2.85;;
33714;SDS011;20043;50.998;4.754;2024-02-21T12:34:34;7.05;;;2.88;;
33714;SDS011;20043;50.998;4.754;2024-02-21T12:37:01;12.50;;;2.85;;
33714;SDS011;20043;50.998;4.754;2024-02-21T12:39:28;7.70;;;3.00;;
33714;SDS011;20043;50.998;4.754;2024-02-21T12:41:54;12.98;;;3.05;;
33714;SDS011;20043;50.998;4.754;2024-02-21T12:44:21;6.43;;;2.80;;
33714;SDS011;20043;50.998;4.754;2024-02-21T12:46:47;8.77;;;3.55;;
33714;SDS011;20043;50.998;4.754;2024-02-21T12:49:17;9.07;;;3.00;;
33714;SDS011;20043;50.998;4.754;2024-02-21T12:51:43;7.47;;;2.92;;
33714;SDS011;20043;50.998;4.754;2024-02-21T12:54:11;9.70;;;3.17;;
33714;SDS011;20043;50.998;4.754;2024-02-21T12:56:37;11.18;;;2.80;;
33714;SDS011;20043;50.998;4.754;2024-02-21T12:59:04;10.85;;;3.42;;
33714;SDS011;20043;50.998;4.754;2024-02-21T13:01:32;10.93;;;3.38;;
33714;SDS011;20043;50.998;4.754;2024-02-21T13:03:58;12.85;;;3.63;;
33714;SDS011;20043;50.998;4.754;2024-02-21T13:06:25;10.48;;;3.50;;
33714;SDS011;20043;50.998;4.754;2024-02-21T13:08:51;9.63;;;3.28;;
33714;SDS011;20043;50.998;4.754;2024-02-21T13:11:16;10.43;;;3.40;;
33714;SDS011;20043;50.998;4.754;2024-02-21T13:13:42;17.75;;;3.60;;
33714;SDS011;20043;50.998;4.754;2024-02-21T13:16:08;11.43;;;3.90;;
33714;SDS011;20043;50.998;4.754;2024-02-21T13:18:35;10.77;;;3.28;;
33714;SDS011;20043;50.998;4.754;2024-02-21T13:21:03;10.07;;;3.15;;
33714;SDS011;20043;50.998;4.754;2024-02-21T13:23:31;10.10;;;3.45;;
33714;SDS011;20043;50.998;4.754;2024-02-21T13:25:57;14.93;;;3.70;;
33714;SDS011;20043;50.998;4.754;2024-02-21T13:28:22;11.07;;;3.42;;
33714;SDS011;20043;50.998;4.754;2024-02-21T13:30:48;11.73;;;4.03;;
33714;SDS011;20043;50.998;4.754;2024-02-21T13:33:14;10.05;;;3.08;;
33714;SDS011;20043;50.998;4.754;2024-02-21T13:35:39;10.18;;;3.30;;
33714;SDS011;20043;50.998;4.754;2024-02-21T13:38:05;9.18;;;3.17;;
33714;SDS011;20043;50.998;4.754;2024-02-21T13:40:31;12.32;;;3.22;;
33714;SDS011;20043;50.998;4.754;2024-02-21T13:42:56;8.48;;;3.40;;
33714;SDS011;20043;50.998;4.754;2024-02-21T13:45:22;9.55;;;3.35;;
33714;SDS011;20043;50.998;4.754;2024-02-21T13:47:48;11.52;;;3.58;;
33714;SDS011;20043;50.998;4.754;2024-02-21T13:50:13;13.27;;;3.45;;
33714;SDS011;20043;50.998;4.754;2024-02-21T13:52:40;9.70;;;3.10;;
33714;SDS011;20043;50.998;4.754;2024-02-21T13:55:06;13.38;;;3.70;;
33714;SDS011;20043;50.998;4.754;2024-02-21T13:57:37;11.73;;;3.60;;
33714;SDS011;20043;50.998;4.754;2024-02-21T14:00:03;15.07;;;3.95;;
33714;SDS011;20043;50.998;4.754;2024-02-21T14:02:30;10.05;;;3.67;;
33714;SDS011;20043;50.998;4.754;2024-02-21T14:04:56;12.10;;;3.70;;
33714;SDS011;20043;50.998;4.754;2024-02-21T14:07:22;8.30;;;3.38;;
33714;SDS011;20043;50.998;4.754;2024-02-21T14:09:47;12.88;;;3.60;;
33714;SDS011;20043;50.998;4.754;2024-02-21T14:12:13;9.75;;;3.55;;
33714;SDS011;20043;50.998;4.754;2024-02-21T14:14:41;11.23;;;4.18;;
33714;SDS011;20043;50.998;4.754;2024-02-21T14:17:09;11.30;;;4.13;;
33714;SDS011;20043;50.998;4.754;2024-02-21T14:19:34;12.00;;;3.90;;
33714;SDS011;20043;50.998;4.754;2024-02-21T14:22:00;12.38;;;4.22;;
33714;SDS011;20043;50.998;4.754;2024-02-21T14:24:27;12.48;;;4.53;;
33714;SDS011;20043;50.998;4.754;2024-02-21T14:26:52;11.65;;;3.92;;
33714;SDS011;20043;50.998;4.754;2024-02-21T14:29:19;12.30;;;4.00;;
33714;SDS011;20043;50.998;4.754;2024-02-21T14:31:46;15.13;;;4.30;;
33714;SDS011;20043;50.998;4.754;2024-02-21T14:34:11;12.82;;;4.47;;
33714;SDS011;20043;50.998;4.754;2024-02-21T14:36:37;13.00;;;4.60;;